• Join FlightAware (Why Join?)
  • Login
  • US Flag 
02:19PM EDT


 

Airport Tracker/Info


-or-


 

Live Flight TrackerFlight Track Log ✈ PGA1096 ✈ 05-Mar-2012 ✈ LPPT / LIS - LEVC / VLC

Flight Track Log - Related Links

Times and Time Zones

All times are in EST time to prevent confusion due to time zone crossing. See the PGA1096 flight status page for this flight to view local times or setup timezone preferences in your user account.

Time Position Orientation Groundspeed Altitude Reporting Facility
EST Latitude Longitude Course Direction KTS MPH feet Rate Location/Type
03:58AM 38.8477 -8.5705 82° East  Level Estimated
03:59AM 38.8611 -8.4530 82° East  Level Estimated
04:00AM 38.8744 -8.3355 82° East  Level Estimated
04:01AM 38.8876 -8.2179 82° East  Level Estimated
04:02AM 38.9007 -8.1003 82° East  Level Estimated
04:03AM 38.9137 -7.9826 82° East  Level Estimated
04:04AM 38.9265 -7.8649 82° East  Level Estimated
04:05AM 38.9392 -7.7471 82° East  Level Estimated
04:06AM 38.9518 -7.6293 82° East  Level Estimated
04:07AM 38.9643 -7.5114 82° East  Level Estimated
04:08AM 38.9767 -7.3935 82° East  Level Estimated
04:09AM 38.9890 -7.2756 82° East  Level Estimated
04:10AM 39.0011 -7.1576 82° East  Level Estimated
04:11AM 39.0131 -7.0396 83° East  Level Estimated
04:12AM 39.0250 -6.9215 83° East  Level Estimated
04:13AM 39.0368 -6.8035 83° East  Level Estimated
04:14AM 39.0484 -6.6853 83° East  Level Estimated
04:15AM 39.0600 -6.5672 83° East  Level Estimated
04:16AM 39.0714 -6.4489 83° East  Level Estimated
04:17AM 39.0827 -6.3307 83° East  Level Estimated
04:18AM 39.0939 -6.2124 83° East  Level Estimated
04:19AM 39.1049 -6.0941 83° East  Level Estimated
04:20AM 39.1159 -5.9757 83° East  Level Estimated
04:21AM 39.1267 -5.8573 83° East  Level Estimated
04:22AM 39.1374 -5.7389 83° East  Level Estimated
04:23AM 39.1480 -5.6204 83° East  Level Estimated
04:24AM 39.1585 -5.5019 84° East  Level Estimated
04:25AM 39.1688 -5.3834 84° East  Level Estimated
04:26AM 39.1790 -5.2648 84° East  Level Estimated
04:27AM 39.1891 -5.1462 84° East  Level Estimated
04:28AM 39.1991 -5.0275 84° East  Level Estimated
04:29AM 39.2090 -4.9089 84° East  Level Estimated
04:30AM 39.2187 -4.7902 84° East  Level Estimated
04:31AM 39.2283 -4.6714 84° East  Level Estimated
04:32AM 39.2378 -4.5526 84° East  Level Estimated
04:33AM 39.2472 -4.4338 84° East  Level Estimated
04:34AM 39.2565 -4.3150 84° East  Level Estimated
04:35AM 39.2656 -4.1961 84° East  Level Estimated
04:36AM 39.2746 -4.0772 84° East  Level Estimated
04:37AM 39.2835 -3.9583 85° East  Level Estimated
04:38AM 39.2923 -3.8393 85° East  Level Estimated
04:39AM 39.3009 -3.7203 85° East  Level Estimated
04:40AM 39.3095 -3.6013 85° East  Level Estimated
04:41AM 39.3179 -3.4823 85° East  Level Estimated
04:42AM 39.3262 -3.3632 85° East  Level Estimated
04:43AM 39.3343 -3.2441 85° East  Level Estimated
04:44AM 39.3424 -3.1250 85° East  Level Estimated
04:45AM 39.3503 -3.0058 85° East  Level Estimated
04:46AM 39.3581 -2.8866 85° East  Level Estimated
04:47AM 39.3658 -2.7674 85° East  Level Estimated
04:48AM 39.3734 -2.6482 85° East  Level Estimated
04:49AM 39.3808 -2.5289 85° East  Level Estimated
04:50AM 39.3881 -2.4096 85° East  Level Estimated
04:51AM 39.3953 -2.2903 86° East  Level Estimated
04:52AM 39.4024 -2.1710 86° East  Level Estimated
04:53AM 39.4093 -2.0516 86° East  Level Estimated
04:54AM 39.4162 -1.9322 86° East  Level Estimated
04:55AM 39.4229 -1.8128 86° East  Level Estimated
04:56AM 39.4295 -1.6934 86° East  Level Estimated
04:57AM 39.4359 -1.5739 86° East  Level Estimated
04:58AM 39.4423 -1.4544 86° East  Level Estimated
04:59AM 39.4485 -1.3349 86° East  Level Estimated
05:00AM 39.4546 -1.2154 86° East  Level Estimated
05:01AM 39.4605 -1.0959 86° East  Level Estimated
05:02AM 39.4664 -0.9763 86° East  Level Estimated
05:03AM 39.4721 -0.8567 86° East  Level Estimated
05:04AM 39.4777 -0.7371 87° East  Level Estimated
05:05AM 39.4832 -0.6175 87° East  Level Estimated
05:06AM 39.4886 -0.4979 87° East  Level Estimated
05:07AM 39.4938 -0.3782 87° East  Level Estimated